Time;durP1;ratioP1;P1;durP2;ratioP2;P2;SDS_P1;SDS_P2;PMS_P1;PMS_P2;Temp;Humidity;BMP_temperature;BMP_pressure;BME280_temperature;BME280_humidity;BME280_pressure;Samples;Min_cycle;Max_cycle;Signal;HPM_P1;HPM_P2
2022/09/01 00:02:10;;;;;;;1.85;1.48;;;;;;;26.12;37.10;102260.53;5081594;28;20024;-75
2022/09/01 00:04:40;;;;;;;2.85;1.30;;;;;;;26.39;37.27;102257.28;5080138;28;20031;-75
2022/09/01 00:07:07;;;;;;;2.53;1.20;;;;;;;26.41;36.75;102247.38;5093632;28;20024;-75
2022/09/01 00:09:34;;;;;;;2.22;1.13;;;;;;;26.49;36.52;102242.44;5072079;28;20101;-75
2022/09/01 00:12:00;;;;;;;3.30;1.40;;;;;;;26.39;36.89;102246.56;5083553;28;20487;-74
2022/09/01 00:14:29;;;;;;;2.38;1.40;;;;;;;26.17;37.49;102237.03;5084553;28;20028;-75
2022/09/01 00:16:55;;;;;;;2.67;1.83;;;;;;;25.96;37.95;102238.16;5090182;28;20028;-75
2022/09/01 00:19:22;;;;;;;1.85;1.50;;;;;;;26.02;37.56;102232.47;5086875;28;20031;-75
2022/09/01 00:21:47;;;;;;;4.10;1.20;;;;;;;26.38;37.16;102234.13;5074405;28;20031;-75
2022/09/01 00:24:16;;;;;;;4.43;1.60;;;;;;;25.75;38.49;102232.97;5078393;28;20036;-75
2022/09/01 00:26:43;;;;;;;2.97;1.40;;;;;;;26.08;37.99;102233.03;5073878;28;20028;-75
2022/09/01 00:29:09;;;;;;;1.80;1.40;;;;;;;25.57;38.72;102233.00;5067760;28;20081;-75
2022/09/01 00:31:34;;;;;;;2.05;1.10;;;;;;;26.44;37.29;102236.47;5060149;28;20032;-75
2022/09/01 00:34:01;;;;;;;3.38;1.83;;;;;;;26.04;37.48;102230.59;5053973;28;20032;-75
2022/09/01 00:36:26;;;;;;;2.53;1.30;;;;;;;26.06;37.59;102228.69;5063424;28;20422;-74
2022/09/01 00:38:53;;;;;;;3.20;1.40;;;;;;;25.64;38.51;102230.00;5067025;28;20025;-74
2022/09/01 00:41:21;;;;;;;6.05;2.60;;;;;;;25.77;38.33;102231.06;5059846;28;20127;-75
2022/09/01 00:43:56;;;;;;;5.25;1.40;;;;;;;24.89;39.74;102231.00;5059773;28;20566;-75
2022/09/01 00:46:26;;;;;;;4.47;1.48;;;;;;;24.99;39.48;102227.84;5034105;28;20021;-74
2022/09/01 00:49:14;;;;;;;3.33;1.30;;;;;;;26.20;37.59;102223.47;5046935;28;20067;-77
2022/09/01 00:51:46;;;;;;;6.63;1.40;;;;;;;25.16;39.34;102225.22;5036560;28;20079;-75
2022/09/01 00:54:17;;;;;;;11.10;2.17;;;;;;;25.74;38.36;102221.38;5062813;28;20078;-75
2022/09/01 00:56:44;;;;;;;4.05;1.73;;;;;;;25.56;38.47;102215.19;5051625;28;20082;-74
2022/09/01 00:59:11;;;;;;;2.78;1.50;;;;;;;25.82;38.19;102214.78;5064348;28;20041;-75
2022/09/01 01:01:37;;;;;;;4.88;1.58;;;;;;;25.66;38.54;102218.25;5062287;28;20484;-75
2022/09/01 01:04:05;;;;;;;2.03;1.50;;;;;;;25.79;38.32;102221.16;5041465;28;20035;-75
2022/09/01 01:06:32;;;;;;;3.85;1.63;;;;;;;25.87;38.22;102208.22;5056032;28;20094;-75
2022/09/01 01:08:59;;;;;;;3.00;1.40;;;;;;;25.83;38.52;102217.38;5036072;28;20601;-75
2022/09/01 01:11:30;;;;;;;4.95;1.50;;;;;;;24.13;41.30;102220.25;5051429;28;20021;-74
2022/09/01 01:13:59;;;;;;;3.28;1.65;;;;;;;25.62;38.47;102213.16;5048495;28;21540;-75
2022/09/01 01:16:27;;;;;;;3.65;1.40;;;;;;;24.48;40.61;102215.09;5064168;28;20075;-75
2022/09/01 01:18:54;;;;;;;3.67;1.73;;;;;;;24.67;40.44;102214.25;5033994;28;20051;-74
2022/09/01 01:24:31;;;;;;;3.45;1.40;;;;;;;26.16;37.73;102203.16;5066903;28;20073;-74
2022/09/01 01:26:58;;;;;;;5.85;2.28;;;;;;;24.28;41.00;102217.84;5036673;28;20376;-75
2022/09/01 01:29:38;;;;;;;3.42;1.58;;;;;;;25.11;40.00;102219.22;5036850;28;20103;-75
2022/09/01 01:32:11;;;;;;;4.05;1.80;;;;;;;24.76;40.76;102219.16;5070201;28;20024;-75
2022/09/01 01:34:42;;;;;;;5.43;1.50;;;;;;;24.75;40.68;102222.78;5068488;28;20238;-75
2022/09/01 01:37:09;;;;;;;2.10;1.65;;;;;;;24.81;40.15;102214.47;5058062;28;20594;-75
2022/09/01 01:39:39;;;;;;;4.40;1.80;;;;;;;24.38;41.50;102211.13;5043722;28;20025;-74
2022/09/01 01:42:08;;;;;;;3.72;1.80;;;;;;;24.75;40.64;102212.06;5037565;28;20047;-74
2022/09/01 01:44:36;;;;;;;2.78;2.10;;;;;;;25.28;39.90;102209.47;5057639;28;20084;-75
2022/09/01 01:47:08;;;;;;;5.07;1.60;;;;;;;25.67;39.00;102203.91;5054452;28;20031;-75
2022/09/01 01:49:35;;;;;;;5.45;1.80;;;;;;;24.22;41.26;102208.28;5080445;28;20028;-75
2022/09/01 01:52:01;;;;;;;6.65;1.83;;;;;;;25.72;38.86;102209.06;5071392;28;20028;-75
2022/09/01 01:54:31;;;;;;;2.42;1.70;;;;;;;24.97;40.36;102222.59;5069007;28;20031;-75
2022/09/01 01:57:00;;;;;;;1.73;1.60;;;;;;;24.29;41.58;102214.22;5058180;28;20054;-75
2022/09/01 01:59:27;;;;;;;4.38;1.70;;;;;;;25.02;39.45;102215.22;5078463;28;20023;-75
2022/09/01 02:01:53;;;;;;;4.70;1.80;;;;;;;25.95;38.02;102207.81;5059596;28;20035;-74
2022/09/01 02:04:19;;;;;;;7.03;1.80;;;;;;;24.28;41.58;102217.84;5087092;28;20028;-74
2022/09/01 02:06:46;;;;;;;5.30;1.40;;;;;;;23.84;42.17;102214.41;5066801;28;20082;-75
2022/09/01 02:09:15;;;;;;;2.47;1.80;;;;;;;25.04;39.79;102215.13;5080585;28;20523;-74
2022/09/01 02:11:41;;;;;;;3.70;1.70;;;;;;;24.13;41.97;102209.59;5051912;28;20388;-75
2022/09/01 02:14:08;;;;;;;6.32;1.70;;;;;;;24.65;40.48;102202.78;5083515;28;20032;-75
2022/09/01 02:16:35;;;;;;;4.32;1.85;;;;;;;25.45;39.01;102201.50;5065503;28;20028;-75
2022/09/01 02:19:02;;;;;;;2.42;1.70;;;;;;;25.26;39.12;102193.50;5057073;28;20088;-75
2022/09/01 02:21:28;;;;;;;2.42;1.80;;;;;;;26.08;37.85;102200.03;5083337;28;20038;-75
2022/09/01 02:24:01;;;;;;;5.78;1.83;;;;;;;25.52;38.66;102200.22;5062331;28;20109;-75
2022/09/01 02:26:32;;;;;;;3.95;1.58;;;;;;;25.21;38.89;102196.44;5052712;28;20391;-74
2022/09/01 02:29:03;;;;;;;3.10;1.70;;;;;;;24.42;41.56;102199.34;5079488;28;20028;-75
2022/09/01 02:31:34;;;;;;;4.95;2.10;;;;;;;24.83;40.06;102198.34;5063333;28;20441;-74
2022/09/01 02:34:00;;;;;;;4.05;1.95;;;;;;;25.14;39.97;102197.69;5072618;28;20031;-74
2022/09/01 02:36:27;;;;;;;3.60;1.88;;;;;;;25.31;38.66;102195.97;5081487;28;20020;-75
2022/09/01 02:38:53;;;;;;;5.82;1.90;;;;;;;25.21;39.14;102192.88;5071263;28;20028;-74
2022/09/01 02:41:22;;;;;;;2.17;1.73;;;;;;;24.16;41.27;102198.75;5087480;28;20539;-74
2022/09/01 02:43:48;;;;;;;2.63;1.73;;;;;;;24.64;40.26;102187.69;5089094;28;20044;-75
2022/09/01 02:46:14;;;;;;;7.30;2.30;;;;;;;24.82;39.58;102186.75;5066780;28;20029;-74
2022/09/01 02:48:44;;;;;;;1.83;1.70;;;;;;;25.57;38.48;102184.81;5061674;28;20024;-74
2022/09/01 02:51:13;;;;;;;3.30;1.85;;;;;;;25.64;37.75;102179.16;5055705;28;20033;-74
2022/09/01 02:53:41;;;;;;;3.22;2.10;;;;;;;25.65;38.14;102175.50;5056625;28;20560;-75
2022/09/01 02:56:10;;;;;;;4.13;1.70;;;;;;;24.23;40.28;102185.97;5056337;28;20032;-74
2022/09/01 02:58:44;;;;;;;3.35;1.60;;;;;;;25.04;39.43;102191.91;5060145;28;20050;-75
2022/09/01 03:01:23;;;;;;;3.78;1.73;;;;;;;25.06;39.09;102181.16;5051674;28;20079;-74
2022/09/01 03:03:50;;;;;;;3.65;1.90;;;;;;;25.67;38.00;102171.78;5053040;28;20093;-74
2022/09/01 03:06:18;;;;;;;3.53;2.03;;;;;;;25.14;39.06;102170.06;5042015;28;20021;-75
2022/09/01 03:08:44;;;;;;;2.72;1.83;;;;;;;24.48;39.30;102183.03;5045961;28;20070;-74
2022/09/01 03:11:10;;;;;;;6.13;2.00;;;;;;;25.03;39.01;102183.97;5068707;28;20036;-75
2022/09/01 03:13:38;;;;;;;5.55;1.92;;;;;;;24.28;40.51;102175.09;5060148;28;20050;-75
2022/09/01 03:16:06;;;;;;;2.80;1.75;;;;;;;24.30;40.70;102183.91;5040092;28;20083;-75
2022/09/01 03:18:32;;;;;;;2.60;1.63;;;;;;;24.84;39.47;102176.88;5038885;28;20078;-74
2022/09/01 03:20:57;;;;;;;3.33;1.88;;;;;;;25.85;37.58;102177.97;5046289;28;20528;-74
2022/09/01 03:23:24;;;;;;;3.42;1.60;;;;;;;26.13;37.11;102176.53;5055797;28;20036;-75
2022/09/01 03:25:50;;;;;;;2.33;1.63;;;;;;;25.73;37.53;102173.28;5041775;28;20476;-75
2022/09/01 03:28:16;;;;;;;3.15;1.80;;;;;;;24.82;39.03;102176.06;5059532;28;20111;-74
2022/09/01 03:30:47;;;;;;;5.07;1.60;;;;;;;25.04;38.63;102181.22;5032680;28;20128;-75
2022/09/01 03:33:15;;;;;;;2.72;1.70;;;;;;;25.44;37.92;102173.00;5050597;28;20033;-75
2022/09/01 03:35:42;;;;;;;2.55;1.80;;;;;;;24.32;39.88;102174.03;5032167;28;21431;-75
2022/09/01 03:38:07;;;;;;;2.25;1.55;;;;;;;24.64;39.44;102171.63;5062407;28;20794;-75
2022/09/01 03:40:35;;;;;;;4.38;1.80;;;;;;;24.23;40.46;102172.63;5048994;28;20111;-75
2022/09/01 03:43:12;;;;;;;2.05;1.85;;;;;;;24.74;38.91;102164.88;5043076;28;20542;-75
2022/09/01 03:45:39;;;;;;;6.43;1.88;;;;;;;25.22;38.48;102166.06;5053516;28;20060;-75
2022/09/01 03:48:07;;;;;;;1.92;1.80;;;;;;;25.11;38.48;102165.72;5064342;28;20024;-75
2022/09/01 03:50:35;;;;;;;3.05;1.88;;;;;;;25.41;37.66;102157.13;5064451;28;20407;-75
2022/09/01 03:53:01;;;;;;;5.22;3.42;;;;;;;24.68;39.34;102174.06;5081379;28;20075;-75
2022/09/01 03:55:31;;;;;;;4.72;1.83;;;;;;;24.21;39.97;102164.69;5073811;28;20078;-74
2022/09/01 03:58:00;;;;;;;4.00;1.90;;;;;;;24.59;39.40;102162.94;5079768;28;20055;-75
2022/09/01 04:00:28;;;;;;;2.95;2.17;;;;;;;25.62;37.30;102154.25;5071978;28;20031;-75
2022/09/01 04:02:56;;;;;;;4.00;2.00;;;;;;;24.04;39.79;102161.94;5075372;28;20101;-75
2022/09/01 04:05:27;;;;;;;3.95;1.80;;;;;;;24.36;39.60;102162.25;5082233;28;20024;-75
2022/09/01 04:07:54;;;;;;;3.67;1.73;;;;;;;24.82;38.71;102160.03;5066484;28;20128;-75
2022/09/01 04:10:21;;;;;;;4.68;1.70;;;;;;;24.43;38.94;102163.69;5088392;28;20025;-75
2022/09/01 04:12:47;;;;;;;4.07;1.77;;;;;;;24.56;38.56;102148.81;5055306;28;20075;-74
2022/09/01 04:15:15;;;;;;;2.80;2.08;;;;;;;24.71;38.96;102157.03;5081730;28;20111;-74
2022/09/01 04:20:28;;;;;;;9.95;1.83;;;;;;;23.57;40.58;102156.91;5076737;28;20047;-75
2022/09/01 04:22:55;;;;;;;2.75;1.90;;;;;;;24.24;39.41;102162.81;5057045;28;20039;-74
2022/09/01 04:25:25;;;;;;;5.38;1.73;;;;;;;25.33;37.24;102159.31;5092146;28;20020;-75
2022/09/01 04:27:55;;;;;;;6.22;1.80;;;;;;;24.88;38.07;102154.41;5083335;28;20077;-74
2022/09/01 04:30:25;;;;;;;5.05;2.10;;;;;;;23.50;40.43;102162.50;5057461;28;20062;-75
2022/09/01 04:32:54;;;;;;;5.18;2.10;;;;;;;23.92;39.97;102167.81;5054069;28;20078;-74
2022/09/01 04:35:26;;;;;;;2.67;1.90;;;;;;;24.67;38.55;102166.13;5083486;28;20031;-75
2022/09/01 04:37:52;;;;;;;3.90;2.05;;;;;;;25.07;37.49;102158.81;5077935;28;20081;-74
2022/09/01 04:40:22;;;;;;;3.97;1.90;;;;;;;24.56;38.40;102162.16;5089827;28;20036;-75
2022/09/01 04:42:48;;;;;;;4.82;2.13;;;;;;;24.90;37.35;102168.53;5072250;28;20028;-75
2022/09/01 04:45:14;;;;;;;3.92;1.50;;;;;;;25.39;36.33;102151.84;5063473;28;20049;-74
2022/09/01 04:47:41;;;;;;;5.63;1.90;;;;;;;23.94;38.83;102169.50;5042487;28;20511;-75
2022/09/01 04:50:16;;;;;;;3.80;1.77;;;;;;;23.96;38.94;102166.75;5070746;28;20107;-75
2022/09/01 04:52:42;;;;;;;5.07;2.58;;;;;;;24.02;38.29;102164.66;5049876;28;20076;-75
2022/09/01 04:55:16;;;;;;;5.07;1.80;;;;;;;24.45;37.41;102161.78;5059194;28;20037;-75
2022/09/01 04:57:46;;;;;;;3.47;1.65;;;;;;;24.71;37.26;102157.03;5041740;28;20127;-75
2022/09/01 05:00:21;;;;;;;2.08;1.83;;;;;;;24.11;37.90;102168.75;5049774;28;20507;-75
2022/09/01 05:02:52;;;;;;;3.53;1.83;;;;;;;23.91;38.48;102171.47;5044718;28;20035;-75
2022/09/01 05:05:19;;;;;;;3.13;2.00;;;;;;;24.62;37.71;102163.69;5041433;28;20028;-75
2022/09/01 05:07:45;;;;;;;3.03;1.80;;;;;;;23.91;38.46;102160.78;5049650;28;20016;-75
2022/09/01 05:10:11;;;;;;;2.58;1.58;;;;;;;22.96;40.73;102153.25;5060404;28;20040;-75
2022/09/01 05:12:37;;;;;;;3.53;2.38;;;;;;;23.80;38.72;102159.41;5043671;28;20070;-75
2022/09/01 05:15:05;;;;;;;4.50;1.70;;;;;;;24.19;38.56;102155.91;5039139;28;20024;-75
2022/09/01 05:17:31;;;;;;;3.33;2.03;;;;;;;24.34;37.71;102158.78;5044861;28;20476;-75
2022/09/01 05:19:57;;;;;;;5.28;1.75;;;;;;;24.71;37.36;102162.38;5050927;28;20081;-75
2022/09/01 05:22:23;;;;;;;3.38;1.60;;;;;;;24.93;36.20;102164.00;5060187;28;20021;-75
2022/09/01 05:24:50;;;;;;;2.53;1.88;;;;;;;24.62;37.35;102162.81;5067215;28;20102;-75
2022/09/01 05:27:17;;;;;;;2.85;1.70;;;;;;;24.26;37.99;102158.25;5040167;28;20048;-75
2022/09/01 05:29:45;;;;;;;5.47;1.90;;;;;;;23.98;37.55;102162.22;5034785;28;20219;-75
2022/09/01 05:32:11;;;;;;;6.80;1.83;;;;;;;24.02;38.18;102162.00;5033981;28;20021;-75
2022/09/01 05:34:38;;;;;;;4.82;1.70;;;;;;;24.72;36.78;102164.13;5041869;28;20035;-75
2022/09/01 05:37:05;;;;;;;2.20;1.42;;;;;;;24.29;36.69;102158.13;5038220;28;20040;-75
2022/09/01 05:39:31;;;;;;;3.63;1.50;;;;;;;24.83;36.08;102167.13;5037075;28;20027;-75
2022/09/01 05:42:00;;;;;;;3.10;1.63;;;;;;;25.17;35.40;102159.19;5051983;28;20029;-75
2022/09/01 05:44:26;;;;;;;2.95;1.80;;;;;;;23.77;37.83;102164.91;5034684;28;20071;-75
2022/09/01 05:46:52;;;;;;;14.10;2.38;;;;;;;24.81;35.95;102169.00;5054537;28;20106;-75
2022/09/01 05:49:17;;;;;;;6.07;1.70;;;;;;;24.55;36.87;102168.44;5034929;28;20028;-74
2022/09/01 05:51:48;;;;;;;3.20;2.05;;;;;;;23.77;38.78;102175.56;5032990;28;20021;-75
2022/09/01 05:54:15;;;;;;;4.35;1.95;;;;;;;24.60;36.68;102170.88;5041590;28;20025;-75
2022/09/01 05:56:43;;;;;;;5.22;2.13;;;;;;;24.34;37.06;102170.31;5034669;28;20111;-76
2022/09/01 05:59:10;;;;;;;5.80;1.70;;;;;;;23.86;37.77;102175.16;5039982;28;20032;-75
2022/09/01 06:01:38;;;;;;;4.90;2.28;;;;;;;23.58;38.78;102169.31;5041263;28;20021;-75
2022/09/01 06:04:05;;;;;;;2.53;2.10;;;;;;;24.09;37.54;102170.59;5034372;28;20025;-74
2022/09/01 06:06:40;;;;;;;1.80;1.60;;;;;;;24.33;37.22;102167.72;5052702;28;20492;-75
2022/09/01 06:09:07;;;;;;;4.93;1.80;;;;;;;24.70;36.82;102168.66;5034482;28;20033;-75
2022/09/01 06:11:33;;;;;;;8.45;1.83;;;;;;;24.39;37.16;102168.28;5042765;28;20056;-75
2022/09/01 06:13:59;;;;;;;5.20;1.60;;;;;;;24.82;36.34;102170.72;5046672;28;20167;-75
2022/09/01 06:16:27;;;;;;;4.18;2.00;;;;;;;24.19;37.21;102176.38;5051607;28;20033;-75
2022/09/01 06:18:54;;;;;;;2.50;1.70;;;;;;;23.76;38.16;102164.97;5036311;28;20473;-75
2022/09/01 06:21:21;;;;;;;4.47;2.05;;;;;;;23.51;38.25;102169.56;5035350;28;20021;-76
2022/09/01 06:23:52;;;;;;;3.30;1.75;;;;;;;24.41;37.14;102175.38;5035723;28;20043;-75
2022/09/01 06:26:31;;;;;;;5.63;2.08;;;;;;;24.17;37.59;102173.78;5045920;28;20110;-76
2022/09/01 06:29:00;;;;;;;2.65;1.58;;;;;;;24.16;37.20;102173.84;5054960;28;20028;-75
2022/09/01 06:31:32;;;;;;;4.22;2.00;;;;;;;24.57;36.83;102176.38;5047120;28;20049;-75
2022/09/01 06:33:59;;;;;;;;;;;;;;;24.30;36.76;102182.06;5042074;28;20579;-77
2022/09/01 06:36:25;;;;;;;3.75;1.60;;;;;;;23.90;37.09;102169.72;5070595;28;19923;-76
2022/09/01 06:38:51;;;;;;;4.28;1.60;;;;;;;24.12;36.95;102180.28;5036915;28;20481;-76
2022/09/01 06:41:18;;;;;;;3.28;1.80;;;;;;;24.49;36.73;102174.06;5053274;28;20016;-75
2022/09/01 06:43:45;;;;;;;2.05;1.63;;;;;;;24.35;37.11;102177.41;5033508;28;20035;-75
2022/09/01 06:46:11;;;;;;;3.25;1.80;;;;;;;25.09;35.36;102172.97;5052688;28;20111;-75
2022/09/01 06:48:45;;;;;;;3.42;1.80;;;;;;;25.90;34.91;102175.94;5052771;28;20025;-75
2022/09/01 06:51:16;;;;;;;2.83;1.77;;;;;;;25.02;35.80;102171.56;5044906;28;20024;-76
2022/09/01 06:53:43;;;;;;;4.22;1.70;;;;;;;24.96;35.89;102179.88;5056136;28;20509;-76
2022/09/01 06:56:12;;;;;;;6.82;2.00;;;;;;;24.77;35.85;102186.16;5040961;28;20037;-75
2022/09/01 06:58:45;;;;;;;2.33;1.90;;;;;;;23.85;37.53;102188.56;5054550;28;20504;-76
2022/09/01 07:01:14;;;;;;;4.80;1.90;;;;;;;24.44;36.65;102189.47;5040777;28;20021;-76
2022/09/01 07:03:40;;;;;;;3.10;1.85;;;;;;;24.69;36.65;102186.50;5035591;28;20162;-76
2022/09/01 07:06:06;;;;;;;3.58;1.90;;;;;;;24.86;36.26;102195.50;5056208;28;20104;-75
2022/09/01 07:08:38;;;;;;;2.95;1.90;;;;;;;24.52;36.98;102194.44;5034575;28;20108;-77
2022/09/01 07:11:06;;;;;;;6.72;1.77;;;;;;;25.94;35.09;102181.09;5057550;28;20036;-75
2022/09/01 07:13:34;;;;;;;4.82;2.00;;;;;;;25.42;35.70;102193.63;5039217;28;20024;-76
2022/09/01 07:16:00;;;;;;;2.47;1.90;;;;;;;24.93;35.63;102198.75;5039755;28;20028;-75
2022/09/01 07:18:27;;;;;;;4.03;2.00;;;;;;;25.55;34.98;102192.06;5036580;28;20111;-79
2022/09/01 07:20:53;;;;;;;4.93;1.80;;;;;;;26.14;33.85;102188.97;5039794;28;20017;-75
2022/09/01 07:23:20;;;;;;;4.05;1.60;;;;;;;26.18;33.56;102190.53;5056969;28;20020;-75
2022/09/01 07:25:48;;;;;;;3.45;1.40;;;;;;;26.39;33.70;102187.59;5039103;28;20035;-75
2022/09/01 07:28:15;;;;;;;2.92;1.85;;;;;;;25.21;35.00;102193.75;5043741;28;20024;-76
2022/09/01 07:30:49;;;;;;;3.05;1.52;;;;;;;25.64;34.29;102185.34;5059136;28;20028;-75
2022/09/01 07:33:19;;;;;;;6.30;2.03;;;;;;;26.71;32.99;102187.66;5055210;28;20104;-76
2022/09/01 07:35:45;;;;;;;4.15;2.00;;;;;;;26.82;32.87;102193.25;5053927;28;20053;-75
2022/09/01 07:38:17;;;;;;;4.82;1.73;;;;;;;29.28;30.12;102203.06;5029147;28;20523;-76
2022/09/01 07:40:43;;;;;;;5.70;1.70;;;;;;;29.74;28.56;102195.47;5040843;28;20502;-76
2022/09/01 07:43:23;;;;;;;3.08;1.55;;;;;;;31.79;26.08;102187.50;5036759;28;20046;-76
2022/09/01 07:45:51;;;;;;;2.58;2.05;;;;;;;32.91;25.50;102191.06;5040056;28;20585;-75
2022/09/01 07:48:21;;;;;;;2.78;1.70;;;;;;;33.25;24.08;102193.63;5042138;28;20035;-75
2022/09/01 07:50:48;;;;;;;5.10;1.98;;;;;;;33.68;24.15;102199.03;5041472;28;20063;-75
2022/09/01 07:53:21;;;;;;;4.50;1.50;;;;;;;34.20;23.20;102197.13;5038645;28;20072;-75
2022/09/01 07:55:52;;;;;;;7.67;1.40;;;;;;;35.17;23.20;102198.22;5054301;28;20028;-75
2022/09/01 07:58:20;;;;;;;6.57;1.48;;;;;;;36.30;21.45;102191.00;5058020;28;20278;-75
2022/09/01 08:00:48;;;;;;;2.95;1.45;;;;;;;35.46;22.34;102197.34;5059771;28;20039;-75
2022/09/01 08:03:16;;;;;;;3.47;1.60;;;;;;;34.62;21.80;102199.66;5043623;28;20452;-75
2022/09/01 08:05:42;;;;;;;2.28;1.42;;;;;;;36.03;20.88;102201.91;5058402;28;20029;-76
2022/09/01 08:08:08;;;;;;;2.70;1.20;;;;;;;34.52;22.06;102198.78;5042707;28;20546;-76
2022/09/01 08:10:37;;;;;;;3.05;1.38;;;;;;;35.15;21.99;102194.81;5044110;28;20115;-75
2022/09/01 08:13:02;;;;;;;3.45;1.38;;;;;;;34.68;22.58;102198.22;5045743;28;20025;-75
2022/09/01 08:15:28;;;;;;;5.10;1.60;;;;;;;34.34;22.98;102195.03;5060006;28;20450;-75
2022/09/01 08:17:53;;;;;;;3.75;1.50;;;;;;;34.88;22.93;102199.09;5065979;28;20029;-75
2022/09/01 08:20:19;;;;;;;3.17;1.63;;;;;;;34.50;22.49;102200.78;5040400;28;20025;-74
2022/09/01 08:22:44;;;;;;;4.63;1.38;;;;;;;33.76;23.28;102197.34;5037591;28;20032;-75
2022/09/01 08:25:10;;;;;;;5.22;1.50;;;;;;;34.05;23.95;102206.63;5053010;28;20096;-75
2022/09/01 08:27:37;;;;;;;3.30;1.15;;;;;;;34.43;23.36;102199.59;5039112;28;20059;-75
2022/09/01 08:30:09;;;;;;;3.83;1.25;;;;;;;34.19;23.14;102197.25;5054471;28;20036;-75
2022/09/01 08:32:35;;;;;;;1.73;1.37;;;;;;;33.76;23.43;102196.50;5056086;28;20063;-75
2022/09/01 08:35:03;;;;;;;8.75;1.75;;;;;;;34.62;23.12;102194.22;5054174;28;20047;-75
2022/09/01 08:37:30;;;;;;;5.13;1.65;;;;;;;34.53;22.83;102195.06;5033976;28;20035;-76
2022/09/01 08:39:55;;;;;;;1.75;1.13;;;;;;;35.23;21.76;102194.06;5036339;28;20108;-75
2022/09/01 08:42:45;;;;;;;2.85;1.50;;;;;;;34.14;23.51;102192.22;5050468;28;20473;-76
2022/09/01 08:45:30;;;;;;;2.08;1.50;;;;;;;33.76;22.94;102202.75;5049900;28;20431;-76
2022/09/01 08:48:06;;;;;;;1.33;1.00;;;;;;;35.00;22.66;102197.97;5064751;28;20017;-76
2022/09/01 08:50:34;;;;;;;4.25;1.30;;;;;;;35.74;21.27;102202.88;5055099;28;20027;-75
2022/09/01 08:53:25;;;;;;;3.97;1.15;;;;;;;36.48;21.06;102198.38;5063952;28;20032;-75
2022/09/01 08:55:55;;;;;;;2.20;1.40;;;;;;;36.89;20.12;102200.66;5075196;28;20132;-75
2022/09/01 08:58:21;;;;;;;5.35;1.88;;;;;;;36.57;20.26;102191.97;5058702;28;20031;-75
2022/09/01 09:01:00;;;;;;;1.95;1.02;;;;;;;35.41;21.34;102202.38;5055904;28;20036;-77
2022/09/01 09:03:30;;;;;;;1.35;1.20;;;;;;;37.01;20.01;102193.94;5078824;28;20103;-75
2022/09/01 09:06:24;;;;;;;2.28;1.35;;;;;;;36.02;20.83;102189.31;5056410;28;20054;-74
2022/09/01 09:08:52;;;;;;;6.53;1.38;;;;;;;36.26;21.31;102184.16;5066243;28;20050;-75
2022/09/01 09:11:40;;;;;;;2.38;1.30;;;;;;;36.97;20.47;102182.53;5068809;28;20024;-75
2022/09/01 09:14:18;;;;;;;4.55;1.23;;;;;;;35.35;21.87;102184.78;5075325;28;20036;-75
2022/09/01 09:16:49;;;;;;;4.45;1.10;;;;;;;35.00;21.86;102180.81;5078737;28;20085;-75
2022/09/01 09:19:23;;;;;;;5.00;1.03;;;;;;;34.44;22.43;102191.31;5057976;28;20033;-77
2022/09/01 09:21:51;;;;;;;7.97;1.25;;;;;;;33.54;22.84;102182.09;5056489;28;20278;-77
2022/09/01 09:24:49;;;;;;;1.42;1.20;;;;;;;33.78;23.47;102178.25;5072945;28;20028;-75
2022/09/01 09:27:30;;;;;;;2.88;1.02;;;;;;;35.02;21.86;102175.25;5052995;28;20036;-76
2022/09/01 09:29:58;;;;;;;8.02;1.60;;;;;;;34.74;21.97;102169.66;5071985;28;20035;-75
2022/09/01 09:32:44;;;;;;;1.92;1.27;;;;;;;34.17;22.49;102167.56;5056162;28;20103;-75
2022/09/01 09:35:19;;;;;;;3.78;1.48;;;;;;;33.75;22.97;102163.09;5061053;28;20036;-75
2022/09/01 09:37:44;;;;;;;3.75;1.15;;;;;;;33.54;23.09;102168.56;5073274;28;20029;-76
2022/09/01 09:40:15;;;;;;;2.28;1.15;;;;;;;34.51;22.67;102164.47;5061012;28;20020;-75
2022/09/01 09:43:03;;;;;;;4.20;1.50;;;;;;;33.78;22.93;102162.84;5085616;28;20476;-76
2022/09/01 09:45:38;;;;;;;1.80;0.90;;;;;;;34.77;21.90;102155.78;5057610;28;20076;-75
2022/09/01 09:48:08;;;;;;;2.75;0.80;;;;;;;34.53;20.94;102157.06;5076750;28;20032;-75
2022/09/01 09:50:42;;;;;;;3.80;0.85;;;;;;;34.93;21.38;102156.09;5058683;28;20476;-75
2022/09/01 09:53:25;;;;;;;4.97;1.10;;;;;;;34.39;22.13;102154.75;5074585;28;20032;-78
2022/09/01 09:55:56;;;;;;;3.25;1.08;;;;;;;35.21;20.57;102150.75;5059126;28;20423;-75
2022/09/01 09:58:27;;;;;;;2.97;1.00;;;;;;;35.64;20.86;102145.78;5074704;28;20024;-76
2022/09/01 10:01:29;;;;;;;4.13;1.23;;;;;;;35.55;20.47;102143.97;5059687;28;20036;-75
2022/09/01 10:03:57;;;;;;;2.25;0.75;;;;;;;36.77;20.08;102148.28;4979966;28;20034;-73
2022/09/01 10:06:37;;;;;;;3.65;0.95;;;;;;;35.41;20.39;102145.31;5057284;28;20524;-75
2022/09/01 10:09:13;;;;;;;1.23;1.08;;;;;;;35.77;20.12;102140.03;5070456;28;20036;-74
2022/09/01 10:11:42;;;;;;;4.68;1.10;;;;;;;34.23;20.96;102137.16;5051044;28;20089;-75
2022/09/01 10:14:15;;;;;;;4.55;0.90;;;;;;;34.73;21.03;102146.22;5078807;28;20036;-75
2022/09/01 10:16:41;;;;;;;3.75;0.80;;;;;;;34.21;21.64;102136.44;5083121;28;20078;-76
2022/09/01 10:19:12;;;;;;;3.40;0.80;;;;;;;34.47;21.38;102141.34;5064270;28;20058;-75
2022/09/01 10:21:40;;;;;;;3.22;0.80;;;;;;;34.52;21.48;102139.06;5081700;28;20023;-74
2022/09/01 10:24:28;;;;;;;2.38;1.10;;;;;;;33.72;21.61;102124.56;5056936;28;20384;-75
2022/09/01 10:27:17;;;;;;;1.83;1.00;;;;;;;32.92;22.71;102132.34;5071712;28;20028;-74
2022/09/01 10:29:47;;;;;;;5.80;0.90;;;;;;;33.72;21.52;102130.00;5072688;28;20028;-74
2022/09/01 10:32:19;;;;;;;2.45;1.02;;;;;;;33.96;21.77;102137.78;5070486;28;20040;-75
2022/09/01 10:34:46;;;;;;;2.53;0.90;;;;;;;35.20;20.70;102131.88;5072109;28;20173;-74
2022/09/01 10:37:12;;;;;;;7.25;1.10;;;;;;;34.89;20.61;102135.66;5068671;28;20036;-74
2022/09/01 10:40:13;;;;;;;1.52;1.00;;;;;;;34.82;20.31;102134.53;5052928;28;20433;-74
2022/09/01 10:42:42;;;;;;;3.03;0.90;;;;;;;33.85;21.21;102129.78;5043892;28;20055;-74
2022/09/01 10:45:31;;;;;;;9.50;0.85;;;;;;;34.65;20.82;102134.22;5070731;28;20079;-75
2022/09/01 10:48:26;;;;;;;5.80;0.90;;;;;;;34.28;21.47;102129.44;5081605;28;20058;-74
2022/09/01 10:51:13;;;;;;;1.63;0.75;;;;;;;34.20;21.90;102120.28;5066363;28;20070;-74
2022/09/01 10:53:56;;;;;;;1.60;0.65;;;;;;;34.52;20.65;102133.63;5073370;28;20032;-75
2022/09/01 10:56:24;;;;;;;4.25;0.85;;;;;;;33.56;21.45;102115.06;5095097;28;20026;-75
2022/09/01 10:59:04;;;;;;;1.25;0.82;;;;;;;34.97;20.31;102126.81;5092945;28;20036;-74
2022/09/01 11:02:12;;;;;;;1.50;0.95;;;;;;;34.26;20.97;102122.44;5067766;28;20030;-75
2022/09/01 11:04:38;;;;;;;3.03;0.80;;;;;;;34.83;20.59;102119.97;5095698;28;20020;-75
2022/09/01 11:07:24;;;;;;;2.35;1.33;;;;;;;34.72;20.46;102122.78;5075270;28;20549;-75
2022/09/01 11:10:30;;;;;;;2.90;1.10;;;;;;;34.58;20.78;102124.94;5056271;28;20029;-74
2022/09/01 11:13:32;;;;;;;6.82;1.20;;;;;;;34.71;19.77;102121.94;5091882;28;20040;-74
2022/09/01 11:16:24;;;;;;;1.55;1.00;;;;;;;34.56;20.88;102113.34;5089770;28;20036;-75
2022/09/01 11:18:50;;;;;;;1.73;1.00;;;;;;;35.36;20.29;102115.00;5081589;28;20016;-74
2022/09/01 11:21:29;;;;;;;2.88;0.88;;;;;;;35.38;20.54;102118.41;5084338;28;20301;-74
2022/09/01 11:24:32;;;;;;;2.13;1.00;;;;;;;35.06;19.79;102116.91;5075359;28;20032;-75
2022/09/01 11:26:58;;;;;;;3.72;1.08;;;;;;;34.51;20.57;102120.22;5059461;28;20025;-74
2022/09/01 11:29:54;;;;;;;1.08;0.90;;;;;;;33.57;21.22;102116.78;5088058;28;20126;-74
2022/09/01 11:32:24;;;;;;;2.97;0.90;;;;;;;34.48;20.95;102116.78;5076545;28;20462;-74
2022/09/01 11:34:51;;;;;;;1.42;0.90;;;;;;;35.43;19.46;102105.25;5076915;28;20104;-74
2022/09/01 11:37:21;;;;;;;1.95;0.90;;;;;;;34.44;19.88;102103.63;5056584;28;20028;-78
2022/09/01 11:40:01;;;;;;;4.70;1.10;;;;;;;35.43;19.92;102105.25;5061366;28;20036;-74
2022/09/01 11:42:38;;;;;;;7.15;1.13;;;;;;;34.10;20.20;102106.72;5061298;28;20081;-74
2022/09/01 11:45:18;;;;;;;7.10;1.67;;;;;;;34.23;19.48;102101.88;5063273;28;20474;-74
2022/09/01 11:47:51;;;;;;;1.80;1.00;;;;;;;35.38;19.30;102104.84;5071928;28;20020;-74